Time;durP1;ratioP1;P1;durP2;ratioP2;P2;SDS_P1;SDS_P2;PMS_P1;PMS_P2;Temp;Humidity;BMP_temperature;BMP_pressure;BME280_temperature;BME280_humidity;BME280_pressure;Samples;Min_cycle;Max_cycle;Signal;HPM_P1;HPM_P2
2022/01/20 00:00:20;;;;;;;;;40.00;29.25;;;;;7.67;78.58;102524.97;5079914;27;45477;-46
2022/01/20 00:02:57;;;;;;;;;34.00;28.00;;;;;7.66;78.21;102518.78;5080037;27;45347;-46
2022/01/20 00:08:32;;;;;;;;;27.00;23.00;;;;;7.64;77.63;102535.72;5057163;28;45459;-46
2022/01/20 00:27:22;;;;;;;;;36.25;29.25;;;;;7.60;78.11;102548.25;5057579;28;45806;-46
2022/01/20 00:32:53;;;;;;;;;30.50;26.50;;;;;7.54;78.36;102531.84;5057069;28;45447;-48
2022/01/20 00:35:25;;;;;;;;;30.00;24.75;;;;;7.48;78.85;102518.00;5057121;28;45644;-43
2022/01/20 00:37:50;;;;;;;;;33.25;27.25;;;;;7.43;78.36;102521.84;5056827;28;45488;-43
2022/01/20 00:40:16;;;;;;;;;46.75;32.75;;;;;7.44;78.26;102518.25;5057090;28;45503;-45
2022/01/20 00:42:42;;;;;;;;;45.00;30.50;;;;;7.40;78.51;102514.91;5057634;28;45578;-45
2022/01/20 00:45:08;;;;;;;;;37.50;28.25;;;;;7.38;78.60;102515.94;5077632;28;45335;-47
2022/01/20 00:47:34;;;;;;;;;42.25;37.00;;;;;7.37;78.61;102522.16;5087574;28;46998;-46
2022/01/20 00:49:59;;;;;;;;;57.75;44.50;;;;;7.36;78.17;102518.66;5086240;28;45399;-45
2022/01/20 00:52:24;;;;;;;;;65.00;51.75;;;;;7.35;78.45;102529.34;5084214;27;45341;-49
2022/01/20 00:54:50;;;;;;;;;68.50;53.50;;;;;7.33;78.15;102526.78;5087094;28;45205;-44
2022/01/20 00:57:15;;;;;;;;;75.25;56.00;;;;;7.32;78.07;102529.50;5087185;28;46421;-50
2022/01/20 00:59:41;;;;;;;;;74.50;56.75;;;;;7.23;78.48;102523.75;5086582;28;45276;-47
2022/01/20 01:02:09;;;;;;;;;73.25;56.25;;;;;7.27;77.73;102521.81;5087117;28;45406;-53
2022/01/20 01:04:36;;;;;;;;;76.50;55.75;;;;;7.19;77.84;102511.63;5087716;28;45301;-45
2022/01/20 01:09:30;;;;;;;;;73.00;57.75;;;;;7.19;77.63;102535.44;5079292;27;45433;-46
2022/01/20 01:12:01;;;;;;;;;70.25;54.50;;;;;7.17;77.90;102541.75;5079101;28;45353;-45
2022/01/20 01:14:28;;;;;;;;;68.25;52.00;;;;;7.15;78.11;102536.53;5079163;28;45287;-45
2022/01/20 01:24:40;;;;;;;;;60.00;43.75;;;;;7.06;77.67;102544.97;5079042;28;45403;-46
2022/01/20 01:27:07;;;;;;;;;58.50;44.00;;;;;7.05;77.53;102559.13;5078613;28;46440;-46
2022/01/20 01:32:20;;;;;;;;;43.75;33.25;;;;;6.98;77.50;102566.50;5078578;28;45500;-47
2022/01/20 01:34:51;;;;;;;;;37.50;32.75;;;;;7.00;77.27;102567.31;5078665;28;45220;-47
2022/01/20 01:40:03;;;;;;;;;31.75;28.25;;;;;6.96;76.47;102578.13;5078225;27;45467;-45
2022/01/20 01:42:35;;;;;;;;;30.00;25.00;;;;;6.94;77.60;102578.19;5078364;28;45445;-47
2022/01/20 01:45:28;;;;;;;;;34.00;28.75;;;;;6.92;77.11;102580.06;5078456;27;45509;-47
2022/01/20 01:47:54;;;;;;;;;24.25;22.75;;;;;6.90;77.27;102576.63;5077932;28;46062;-48
2022/01/20 01:50:21;;;;;;;;;24.75;20.25;;;;;6.88;77.06;102586.47;5078052;28;45330;-51
2022/01/20 01:52:47;;;;;;;;;24.00;20.75;;;;;6.87;76.77;102591.81;5078226;28;45397;-48
2022/01/20 01:55:13;;;;;;;;;25.25;19.50;;;;;6.86;76.77;102600.69;5078203;28;45412;-46
2022/01/20 01:57:38;;;;;;;;;34.75;21.50;;;;;6.82;76.78;102602.63;5077780;27;45435;-46
2022/01/20 02:00:07;;;;;;;;;20.00;16.75;;;;;6.83;76.84;102607.00;5077962;28;45215;-50
2022/01/20 02:02:33;;;;;;;;;20.75;11.25;;;;;6.70;76.71;102598.81;5076822;28;45537;-45
2022/01/20 02:04:58;;;;;;;;;22.50;17.25;;;;;6.81;76.94;102618.56;5078252;28;45430;-46
2022/01/20 02:21:01;;;;;;;;;14.75;14.00;;;;;6.69;76.29;102636.75;5077773;28;45418;-45
2022/01/20 02:23:27;;;;;;;;;21.50;16.50;;;;;6.70;76.06;102632.31;5077744;28;45361;-47
2022/01/20 02:25:53;;;;;;;;;21.00;15.00;;;;;6.68;76.41;102629.75;5077914;28;45476;-45
2022/01/20 02:28:19;;;;;;;;;16.25;13.25;;;;;6.66;76.37;102631.63;5077443;28;45401;-46
2022/01/20 02:30:44;;;;;;;;;19.00;16.50;;;;;6.66;76.41;102622.84;5077578;27;45373;-45
2022/01/20 02:33:16;;;;;;;;;23.50;15.00;;;;;6.65;76.14;102639.63;5077525;28;45152;-45
2022/01/20 02:35:46;;;;;;;;;22.00;15.75;;;;;6.64;76.44;102637.91;5077647;27;45274;-48
2022/01/20 02:38:50;;;;;;;;;23.25;14.75;;;;;6.63;75.79;102637.06;5077246;28;46236;-45
2022/01/20 02:46:33;;;;;;;;;9.00;9.00;;;;;6.55;75.44;102631.28;5077563;28;45235;-46
2022/01/20 02:48:59;;;;;;;;;13.50;9.00;;;;;6.55;75.16;102626.00;5077004;28;46129;-46
2022/01/20 02:51:25;;;;;;;;;9.50;9.00;;;;;6.54;75.04;102624.31;5077286;28;45429;-46
2022/01/20 02:53:51;;;;;;;;;9.50;9.00;;;;;6.52;74.49;102620.00;5077301;28;45232;-46
2022/01/20 02:56:17;;;;;;;;;22.00;11.50;;;;;6.48;74.00;102608.72;5077282;27;45220;-43
2022/01/20 02:58:43;;;;;;;;;10.50;10.50;;;;;6.49;74.29;102615.75;5077023;28;46164;-50
2022/01/20 03:01:08;;;;;;;;;12.00;10.25;;;;;6.45;74.42;102615.03;5077135;28;45332;-46
2022/01/20 03:03:35;;;;;;;;;11.50;10.25;;;;;6.36;74.37;102601.38;5077191;27;45353;-48
2022/01/20 03:06:01;;;;;;;;;10.50;10.50;;;;;6.41;74.78;102618.75;5077494;28;45366;-49
2022/01/20 03:08:26;;;;;;;;;11.00;6.75;;;;;6.37;74.98;102614.53;5076950;28;45468;-45
2022/01/20 03:10:52;;;;;;;;;12.00;10.00;;;;;6.38;74.17;102626.81;5076736;28;45405;-51
2022/01/20 03:13:18;;;;;;;;;11.25;7.75;;;;;6.37;73.85;102617.19;5077304;27;45507;-50
2022/01/20 03:15:44;;;;;;;;;13.50;8.50;;;;;6.36;74.71;102627.81;5077234;28;45201;-47
2022/01/20 03:18:09;;;;;;;;;11.50;11.25;;;;;6.25;74.09;102617.75;5077920;28;46138;-45
2022/01/20 03:20:35;;;;;;;;;13.75;11.00;;;;;6.29;73.72;102632.56;5080307;28;45381;-45
2022/01/20 03:23:00;;;;;;;;;10.75;7.50;;;;;6.28;73.42;102624.69;5080665;28;45203;-48
2022/01/20 03:25:26;;;;;;;;;13.00;7.75;;;;;6.30;74.27;102642.19;5080952;28;45186;-48
2022/01/20 03:27:52;;;;;;;;;11.75;4.75;;;;;6.30;73.55;102650.13;5080500;28;46085;-47
2022/01/20 03:30:17;;;;;;;;;8.50;8.00;;;;;6.29;73.44;102653.69;5080418;28;45279;-47
2022/01/20 03:32:43;;;;;;;;;13.25;9.50;;;;;6.21;73.45;102640.84;5080602;28;45305;-46
2022/01/20 03:35:09;;;;;;;;;9.00;6.50;;;;;6.28;73.10;102651.09;5080416;28;45378;-46
2022/01/20 03:37:35;;;;;;;;;12.00;5.00;;;;;6.15;72.47;102641.13;5080226;28;47085;-46
2022/01/20 03:40:01;;;;;;;;;12.00;8.00;;;;;6.24;73.13;102667.13;5080175;28;45268;-48
2022/01/20 03:42:27;;;;;;;;;10.00;5.50;;;;;6.21;72.76;102664.63;5080424;28;45328;-46
2022/01/20 03:44:53;;;;;;;;;8.25;6.00;;;;;6.19;72.69;102670.88;5080280;28;45297;-47
2022/01/20 03:47:20;;;;;;;;;10.50;6.00;;;;;6.19;72.67;102653.28;5079968;28;46163;-46
2022/01/20 03:50:05;;;;;;;;;8.50;4.75;;;;;6.16;72.45;102642.00;5080223;28;45326;-52
2022/01/20 03:52:31;;;;;;;;;8.00;4.00;;;;;6.15;72.63;102641.13;5079226;28;45318;-48
2022/01/20 03:54:56;;;;;;;;;9.75;5.75;;;;;6.15;72.94;102653.47;5080135;28;45162;-45
2022/01/20 03:57:22;;;;;;;;;4.00;4.00;;;;;6.14;72.64;102654.41;5079908;28;45311;-47
2022/01/20 03:59:47;;;;;;;;;5.00;5.00;;;;;6.13;72.64;102658.81;5079947;27;45351;-48
2022/01/20 04:02:13;;;;;;;;;9.50;4.50;;;;;6.13;72.81;102656.19;5080210;27;45283;-46
2022/01/20 04:04:39;;;;;;;;;9.50;7.75;;;;;6.13;72.70;102657.97;5079941;28;45442;-47
2022/01/20 04:07:05;;;;;;;;;7.25;5.75;;;;;6.13;72.21;102666.75;5079735;28;46095;-47
2022/01/20 04:09:30;;;;;;;;;15.00;5.75;;;;;6.12;72.54;102666.84;5079951;28;45398;-47
2022/01/20 04:11:56;;;;;;;;;5.50;5.00;;;;;6.11;72.57;102665.09;5079760;28;45342;-45
2022/01/20 04:14:24;;;;;;;;;12.50;6.50;;;;;6.11;72.84;102676.56;5078806;28;45424;-48
2022/01/20 04:17:01;;;;;;;;;8.00;8.00;;;;;6.10;72.28;102673.97;5079580;28;45980;-47
2022/01/20 04:19:30;;;;;;;;;12.75;8.75;;;;;6.03;72.51;102664.63;5079229;28;45326;-47
2022/01/20 04:21:55;;;;;;;;;8.00;5.00;;;;;6.10;72.44;102682.75;5079560;28;45424;-46
2022/01/20 04:24:20;;;;;;;;;13.50;8.00;;;;;6.09;72.63;102691.59;5079966;28;45407;-46
2022/01/20 04:26:47;;;;;;;;;13.00;7.00;;;;;6.08;72.80;102695.19;5079424;28;46137;-45
2022/01/20 04:29:13;;;;;;;;;9.50;8.00;;;;;5.99;72.88;102667.41;5079101;27;45374;-53
2022/01/20 04:31:41;;;;;;;;;12.50;6.00;;;;;6.07;72.19;102684.66;5078837;28;45366;-47
2022/01/20 04:34:08;;;;;;;;;10.50;5.75;;;;;6.07;72.28;102688.19;5079477;28;45406;-48
2022/01/20 04:36:38;;;;;;;;;7.00;5.75;;;;;6.06;72.00;102685.59;5079179;28;47170;-47
2022/01/20 04:39:07;;;;;;;;;8.75;6.00;;;;;6.05;72.43;102690.03;5079015;28;45716;-46
2022/01/20 04:41:32;;;;;;;;;5.00;5.00;;;;;6.04;72.58;102683.03;5079203;28;45295;-47
2022/01/20 04:43:59;;;;;;;;;11.75;6.25;;;;;6.05;72.38;102686.53;5079520;27;45361;-47
2022/01/20 04:57:34;;;;;;;;;8.25;6.25;;;;;6.00;72.25;102703.44;5036489;28;45853;-46
2022/01/20 05:00:00;;;;;;;;;11.50;8.00;;;;;6.00;72.38;102699.94;5036419;28;45336;-47
2022/01/20 05:02:28;;;;;;;;;8.25;7.00;;;;;5.97;72.64;102694.81;5036454;28;45407;-47
2022/01/20 05:04:53;;;;;;;;;7.50;7.50;;;;;5.98;72.40;102693.88;5036501;28;45511;-47
2022/01/20 05:07:25;;;;;;;;;6.50;6.25;;;;;5.92;71.60;102680.94;5019720;28;46320;-46
2022/01/20 05:09:53;;;;;;;;;13.00;7.00;;;;;5.97;72.26;102695.66;5036304;28;45420;-48
2022/01/20 05:12:25;;;;;;;;;10.75;6.00;;;;;5.96;72.04;102686.03;5036352;28;45496;-46
2022/01/20 05:14:50;;;;;;;;;10.75;4.50;;;;;5.97;72.07;102692.16;5036203;28;45480;-46
2022/01/20 05:17:15;;;;;;;;;9.00;5.00;;;;;5.97;72.41;102697.44;5035939;28;46456;-45
2022/01/20 05:19:41;;;;;;;;;9.00;9.00;;;;;5.95;71.83;102691.38;5036033;28;45403;-44
2022/01/20 05:22:06;;;;;;;;;9.00;6.25;;;;;5.95;71.92;102686.97;5036298;28;45448;-45
2022/01/20 05:24:31;;;;;;;;;11.50;8.00;;;;;5.94;71.92;102692.28;5049583;28;45397;-47
2022/01/20 05:26:57;;;;;;;;;4.00;3.50;;;;;5.93;72.00;102688.78;5078643;28;46568;-47
2022/01/20 05:29:23;;;;;;;;;13.25;4.00;;;;;5.92;71.29;102691.50;5078545;27;45311;-46
2022/01/20 05:31:50;;;;;;;;;6.75;6.00;;;;;5.90;71.68;102691.56;5078889;28;45335;-46
2022/01/20 05:34:16;;;;;;;;;15.00;8.25;;;;;5.91;71.75;102689.78;5079106;28;45342;-46
2022/01/20 05:36:42;;;;;;;;;7.00;7.00;;;;;5.86;71.99;102689.13;5078199;28;45641;-48
2022/01/20 05:39:08;;;;;;;;;9.75;4.75;;;;;5.91;71.19;102702.97;5077155;28;45371;-48
2022/01/20 05:41:34;;;;;;;;;11.75;7.00;;;;;5.90;71.20;102703.88;5077266;28;45392;-45
2022/01/20 05:43:59;;;;;;;;;5.00;2.50;;;;;5.89;71.38;102710.94;5078591;28;45428;-48
2022/01/20 05:46:28;;;;;;;;;6.25;6.25;;;;;5.89;71.41;102720.66;5078572;27;46620;-47
2022/01/20 05:48:58;;;;;;;;;7.25;6.50;;;;;5.89;70.99;102726.81;5078150;28;45528;-50
2022/01/20 05:51:23;;;;;;;;;5.75;5.75;;;;;5.88;71.64;102719.81;5078089;27;45499;-54
2022/01/20 05:53:49;;;;;;;;;6.25;4.25;;;;;5.88;71.18;102725.09;5078312;28;45314;-48
2022/01/20 05:56:15;;;;;;;;;7.25;5.50;;;;;5.88;71.18;102725.09;5077862;28;45390;-49
2022/01/20 05:58:40;;;;;;;;;5.00;5.00;;;;;5.86;72.05;102719.03;5078426;27;45317;-50
2022/01/20 06:01:07;;;;;;;;;8.75;6.25;;;;;5.86;71.58;102723.47;5076769;28;45370;-47
2022/01/20 06:03:36;;;;;;;;;6.50;4.25;;;;;5.87;71.50;102727.81;5078358;28;45294;-47
2022/01/20 06:06:02;;;;;;;;;9.25;4.75;;;;;5.82;71.22;102722.75;5077767;27;46120;-48
2022/01/20 06:08:27;;;;;;;;;7.00;4.00;;;;;5.87;71.14;102735.75;5077642;28;45385;-45
2022/01/20 06:10:53;;;;;;;;;7.25;5.00;;;;;5.83;71.55;102736.78;5077891;28;45496;-46
2022/01/20 06:13:18;;;;;;;;;7.00;6.00;;;;;5.85;71.13;102741.06;5077978;27;45218;-45
2022/01/20 06:15:44;;;;;;;;;9.25;7.00;;;;;5.75;71.54;102723.91;5077786;27;45972;-47
2022/01/20 06:18:10;;;;;;;;;5.75;4.25;;;;;5.84;71.36;102735.88;5078150;28;45424;-47
2022/01/20 06:20:37;;;;;;;;;4.50;4.00;;;;;5.86;71.35;102739.31;5077562;27;45298;-44
2022/01/20 06:23:05;;;;;;;;;7.25;4.50;;;;;5.84;71.65;102742.00;5078199;27;45331;-46
2022/01/20 06:25:31;;;;;;;;;7.00;4.50;;;;;5.85;71.88;102746.34;5077510;28;46118;-45
2022/01/20 06:27:56;;;;;;;;;11.25;6.25;;;;;5.84;71.31;102747.28;5077701;28;45943;-45
2022/01/20 06:30:21;;;;;;;;;6.50;4.75;;;;;5.84;71.51;102746.44;5077918;28;45337;-46
2022/01/20 06:32:47;;;;;;;;;9.25;5.75;;;;;5.83;71.45;102750.00;5077779;27;45463;-47
2022/01/20 06:35:13;;;;;;;;;8.50;6.25;;;;;5.84;71.29;102752.56;5077295;28;46013;-49
2022/01/20 06:37:38;;;;;;;;;7.00;7.00;;;;;5.81;70.68;102749.19;5077534;28;45349;-45
2022/01/20 06:40:06;;;;;;;;;7.25;4.50;;;;;5.81;70.88;102752.69;5077404;28;45324;-46
2022/01/20 06:42:32;;;;;;;;;7.50;5.00;;;;;5.81;70.93;102751.84;5077907;27;45392;-45
2022/01/20 06:44:57;;;;;;;;;6.75;4.00;;;;;5.80;71.19;102756.25;5077506;28;46111;-48
2022/01/20 06:47:23;;;;;;;;;6.00;4.00;;;;;5.79;70.77;102751.06;5077672;28;45385;-45
2022/01/20 06:49:48;;;;;;;;;9.75;7.25;;;;;5.76;70.42;102754.69;5077701;28;45348;-45
2022/01/20 06:52:13;;;;;;;;;5.25;4.25;;;;;5.78;70.92;102752.84;5077891;28;45315;-46
2022/01/20 06:54:39;;;;;;;;;7.75;4.00;;;;;5.79;71.11;102762.47;5083906;28;46044;-46
2022/01/20 06:57:05;;;;;;;;;11.00;8.00;;;;;5.80;70.58;102768.63;5084145;28;45300;-45
2022/01/20 06:59:30;;;;;;;;;9.50;4.00;;;;;5.77;71.06;102769.59;5084095;28;45319;-45
2022/01/20 07:01:56;;;;;;;;;5.00;4.00;;;;;5.78;71.08;102779.25;5084398;28;45334;-47
2022/01/20 07:04:22;;;;;;;;;6.00;3.50;;;;;5.78;70.59;102792.47;5083938;28;46935;-47
2022/01/20 07:06:48;;;;;;;;;3.00;3.00;;;;;5.76;70.39;102796.94;5083866;28;45415;-46
2022/01/20 07:09:13;;;;;;;;;2.00;2.00;;;;;5.79;70.39;102801.25;5084239;27;45230;-46
2022/01/20 07:11:39;;;;;;;;;2.50;2.00;;;;;5.78;70.78;102805.66;5084294;28;45311;-46
2022/01/20 07:14:05;;;;;;;;;7.25;2.00;;;;;5.76;70.20;102810.13;5084408;28;45342;-46
2022/01/20 07:16:31;;;;;;;;;7.25;6.00;;;;;5.76;71.02;102824.19;5084095;28;45389;-44
2022/01/20 07:18:57;;;;;;;;;10.00;5.00;;;;;5.74;70.33;102825.19;5084250;28;45506;-47
2022/01/20 07:21:23;;;;;;;;;5.00;2.50;;;;;5.74;71.06;102822.56;5084185;28;45468;-45
2022/01/20 07:23:49;;;;;;;;;5.00;5.00;;;;;5.74;70.63;102833.13;5083746;28;46946;-46
2022/01/20 07:26:14;;;;;;;;;6.25;5.75;;;;;5.74;70.67;102835.75;5083712;28;45402;-45
2022/01/20 07:28:40;;;;;;;;;9.50;5.00;;;;;5.71;71.07;102836.75;5083665;28;45242;-47
2022/01/20 07:31:06;;;;;;;;;8.00;4.25;;;;;5.64;71.15;102824.72;5083940;28;45349;-46
2022/01/20 07:33:32;;;;;;;;;6.00;6.00;;;;;5.74;71.15;102843.69;5083058;27;45525;-45
2022/01/20 07:35:57;;;;;;;;;10.00;5.00;;;;;5.74;70.70;102851.63;5083183;27;45377;-45
2022/01/20 07:38:22;;;;;;;;;7.25;6.75;;;;;5.75;70.91;102848.03;5083175;27;45352;-47
2022/01/20 07:40:48;;;;;;;;;18.00;9.00;;;;;5.68;71.08;102836.84;5082726;28;45432;-45
2022/01/20 07:43:14;;;;;;;;;11.00;7.00;;;;;5.79;70.75;102851.41;5082651;27;46063;-47
2022/01/20 07:45:39;;;;;;;;;12.00;5.75;;;;;5.81;70.91;102847.78;5082206;28;45457;-48
2022/01/20 07:48:05;;;;;;;;;8.00;3.50;;;;;5.85;71.36;102848.50;5082763;28;45343;-47
2022/01/20 07:50:30;;;;;;;;;8.25;5.00;;;;;5.86;71.35;102840.53;5082594;28;45317;-44
2022/01/20 07:52:56;;;;;;;;;8.50;7.00;;;;;5.88;71.04;102843.97;5082111;28;47277;-49
2022/01/20 07:55:21;;;;;;;;;9.25;7.00;;;;;5.90;70.92;102851.81;5082336;28;45290;-50
2022/01/20 07:57:47;;;;;;;;;6.00;6.00;;;;;5.93;71.12;102851.72;5081154;28;45421;-49
2022/01/20 08:00:13;;;;;;;;;4.75;4.50;;;;;5.94;70.65;102842.88;5082827;28;45434;-46
2022/01/20 08:02:39;;;;;;;;;9.50;5.00;;;;;5.99;70.78;102852.31;5082464;28;46859;-44
2022/01/20 08:05:04;;;;;;;;;7.50;5.00;;;;;6.00;71.25;102840.81;5079199;28;45361;-47
2022/01/20 08:07:30;;;;;;;;;10.75;8.25;;;;;6.15;70.67;102843.72;5079214;28;45409;-46
2022/01/20 08:09:59;;;;;;;;;8.00;6.00;;;;;6.22;70.73;102831.97;5079396;28;45236;-47
2022/01/20 08:12:25;;;;;;;;;6.25;5.00;;;;;6.44;70.10;102850.38;5078840;28;46072;-44
2022/01/20 08:14:51;;;;;;;;;10.50;7.50;;;;;6.46;69.69;102832.69;5078949;28;45841;-47
2022/01/20 08:17:17;;;;;;;;;17.00;10.75;;;;;6.60;69.68;102838.19;5078577;28;45556;-46
2022/01/20 08:19:43;;;;;;;;;10.75;7.00;;;;;6.74;69.38;102856.94;5079116;28;45368;-48
2022/01/20 08:22:08;;;;;;;;;15.50;11.25;;;;;6.75;69.16;102848.06;5078827;27;45531;-46
2022/01/20 08:24:33;;;;;;;;;11.25;10.50;;;;;6.89;68.29;102844.78;5077243;28;45455;-46
2022/01/20 08:26:59;;;;;;;;;13.25;9.00;;;;;6.96;68.66;102846.22;5078924;27;45341;-46
2022/01/20 08:29:25;;;;;;;;;11.50;8.00;;;;;7.00;68.25;102845.16;5079068;27;45345;-44
2022/01/20 08:31:50;;;;;;;;;7.50;7.50;;;;;7.05;68.10;102846.72;5078511;27;46971;-45
2022/01/20 08:34:16;;;;;;;;;8.50;5.75;;;;;7.08;68.16;102844.78;5078573;27;45331;-44
2022/01/20 08:36:42;;;;;;;;;12.00;10.00;;;;;7.11;67.74;102846.41;5078376;27;45508;-43
2022/01/20 08:42:04;;;;;;;;;12.50;6.50;;;;;7.25;67.11;102863.38;5035449;28;45994;-45
2022/01/20 08:44:30;;;;;;;;;12.00;11.00;;;;;7.34;67.94;102861.22;5034679;28;45440;-44
2022/01/20 08:46:58;;;;;;;;;12.25;7.00;;;;;7.39;67.47;102865.34;5035809;28;45454;-44
2022/01/20 08:49:24;;;;;;;;;8.50;8.25;;;;;7.43;67.07;102866.94;5035918;28;45542;-45
2022/01/20 08:51:49;;;;;;;;;12.75;8.00;;;;;7.50;67.53;102873.66;5034191;28;45552;-46
2022/01/20 08:54:14;;;;;;;;;8.25;6.50;;;;;7.54;66.59;102869.03;5035622;28;45375;-44
2022/01/20 08:56:42;;;;;;;;;16.00;11.00;;;;;7.59;66.79;102879.44;5035302;28;45386;-46
2022/01/20 08:59:08;;;;;;;;;16.25;10.00;;;;;7.61;66.55;102873.09;5035675;28;45454;-43
2022/01/20 09:01:36;;;;;;;;;15.25;9.25;;;;;7.63;66.61;102860.66;5034571;28;45265;-46
2022/01/20 09:04:02;;;;;;;;;13.75;9.75;;;;;7.75;66.20;102852.09;5034975;28;45308;-45
2022/01/20 09:06:27;;;;;;;;;14.50;10.25;;;;;7.81;65.75;102847.44;5035573;28;45348;-46
2022/01/20 09:08:53;;;;;;;;;23.75;12.75;;;;;8.02;64.81;102864.03;5041715;28;45456;-45
2022/01/20 09:11:22;;;;;;;;;9.00;9.00;;;;;8.10;64.44;102864.50;5055048;28;45768;-46
2022/01/20 09:16:34;;;;;;;;;15.50;12.00;;;;;8.25;64.41;102872.50;5055080;28;45352;-46
2022/01/20 09:18:59;;;;;;;;;18.50;11.25;;;;;8.36;64.00;102877.25;5086083;27;45630;-49
2022/01/20 09:21:26;;;;;;;;;16.50;10.00;;;;;8.43;64.09;102868.09;5097901;27;47180;-46
2022/01/20 09:23:51;;;;;;;;;14.00;10.25;;;;;8.47;64.61;102874.09;5098162;27;45515;-45
2022/01/20 09:26:17;;;;;;;;;11.75;7.25;;;;;8.54;64.09;102882.56;5097922;27;45473;-48
2022/01/20 09:28:43;;;;;;;;;13.50;10.50;;;;;8.55;63.71;102900.19;5098076;27;45405;-51
2022/01/20 09:31:09;;;;;;;;;10.75;8.00;;;;;8.57;64.00;102893.88;5097829;27;45504;-50
2022/01/20 09:33:35;;;;;;;;;11.50;9.25;;;;;8.64;63.39;102897.06;5097698;27;45408;-48
2022/01/20 09:36:01;;;;;;;;;10.00;6.00;;;;;8.71;63.25;102912.56;5097360;27;45730;-50
2022/01/20 09:38:27;;;;;;;;;9.50;9.50;;;;;8.74;63.25;102906.25;5096436;27;45641;-49
2022/01/20 09:40:53;;;;;;;;;14.25;7.50;;;;;8.73;63.92;102915.16;5097512;27;45631;-55
2022/01/20 09:43:19;;;;;;;;;13.75;10.00;;;;;8.73;63.50;102916.00;5097974;27;45440;-46
2022/01/20 09:45:50;;;;;;;;;13.75;10.00;;;;;8.79;64.15;102906.00;5097764;27;45440;-48
2022/01/20 09:48:16;;;;;;;;;20.00;12.00;;;;;8.88;63.90;102914.31;5097921;27;45660;-49
2022/01/20 09:50:42;;;;;;;;;15.00;11.00;;;;;8.96;62.74;102892.66;5097502;27;46921;-48
2022/01/20 09:53:07;;;;;;;;;19.75;11.75;;;;;9.25;62.83;102907.00;5097305;27;45413;-50
2022/01/20 09:55:35;;;;;;;;;12.25;9.50;;;;;9.43;61.80;102899.78;5097380;27;45244;-48
2022/01/20 09:58:01;;;;;;;;;19.50;12.00;;;;;9.63;61.83;102896.00;5097914;27;45440;-48
2022/01/20 10:00:27;;;;;;;;;14.25;10.25;;;;;9.95;61.01;102889.69;5097205;27;45508;-45
2022/01/20 10:02:57;;;;;;;;;9.00;6.00;;;;;10.30;60.27;102893.91;5097181;27;45485;-51
2022/01/20 10:05:32;;;;;;;;;12.67;11.67;;;;;11.34;58.02;102898.06;5097644;27;45387;-44
2022/01/20 10:08:14;;;;;;;;;14.67;10.33;;;;;11.45;56.91;102890.19;5097833;27;45202;-43
2022/01/20 10:10:49;;;;;;;;;14.67;10.33;;;;;11.94;55.84;102890.50;5097336;27;46985;-48
2022/01/20 10:13:18;;;;;;;;;14.33;11.00;;;;;13.08;53.93;102902.16;5097067;27;45414;-46
2022/01/20 10:15:55;;;;;;;;;17.00;11.00;;;;;13.65;51.77;102906.06;5097078;27;45429;-45
2022/01/20 10:18:21;;;;;;;;;13.67;11.00;;;;;13.40;51.33;102907.00;5097643;27;45389;-47
2022/01/20 10:20:52;;;;;;;;;13.00;6.67;;;;;13.91;50.44;102912.16;5097186;27;46520;-45
2022/01/20 10:23:30;;;;;;;;;16.33;8.00;;;;;13.64;50.73;102923.06;5096101;27;45512;-52
2022/01/20 10:26:25;;;;;;;;;12.67;7.00;;;;;13.06;52.56;102932.63;5078315;27;45280;-53
2022/01/20 10:28:50;;;;;;;;;9.00;7.67;;;;;12.65;52.23;102942.59;4991813;28;45455;-53
2022/01/20 10:31:19;;;;;;;;;6.00;6.00;;;;;12.35;53.39;102931.38;4994459;28;46800;-51
2022/01/20 10:33:46;;;;;;;;;11.67;7.67;;;;;12.07;53.33;102935.03;4994052;28;45435;-54
2022/01/20 10:36:13;;;;;;;;;11.00;11.00;;;;;11.91;54.12;102933.38;4993958;28;45216;-53
2022/01/20 10:38:58;;;;;;;;;13.00;11.33;;;;;11.80;54.71;102940.34;4994592;28;45357;-54
2022/01/20 10:41:33;;;;;;;;;18.00;11.00;;;;;11.72;54.94;102954.22;4994120;28;45422;-53
2022/01/20 10:44:21;;;;;;;;;15.33;9.33;;;;;11.71;54.53;102948.03;4994247;28;45307;-51
2022/01/20 10:46:49;;;;;;;;;13.33;10.67;;;;;11.76;55.05;102949.53;4994177;28;45429;-55
2022/01/20 10:49:15;;;;;;;;;8.67;8.00;;;;;11.79;54.82;102949.31;4994052;28;45427;-52
2022/01/20 10:51:43;;;;;;;;;9.33;8.00;;;;;11.78;54.48;102953.78;4993778;28;46342;-53
2022/01/20 10:54:13;;;;;;;;;13.33;8.67;;;;;11.73;54.51;102948.75;4993759;28;45510;-52
2022/01/20 10:56:57;;;;;;;;;15.67;12.33;;;;;11.74;55.00;102949.63;4993700;28;45509;-51
2022/01/20 10:59:24;;;;;;;;;6.33;6.33;;;;;11.82;54.86;102943.78;4994106;28;45459;-52
2022/01/20 11:02:09;;;;;;;;;7.00;7.00;;;;;11.88;54.64;102938.94;4993684;28;46089;-52
2022/01/20 11:04:37;;;;;;;;;18.67;8.00;;;;;12.01;54.35;102933.66;5011580;28;45492;-56
2022/01/20 11:07:06;;;;;;;;;11.33;7.67;;;;;12.05;53.55;102935.16;5076184;28;45472;-55
2022/01/20 11:09:36;;;;;;;;;9.33;9.33;;;;;12.06;53.79;102936.84;5076123;28;45425;-55
2022/01/20 11:12:02;;;;;;;;;17.67;11.67;;;;;11.92;54.37;102945.75;5075769;28;45360;-53
2022/01/20 11:14:30;;;;;;;;;17.33;12.33;;;;;11.73;54.33;102939.91;5076155;28;45701;-52
2022/01/20 11:16:57;;;;;;;;;8.33;7.33;;;;;11.61;54.95;102954.88;5075997;28;45407;-54
2022/01/20 11:19:23;;;;;;;;;11.33;8.67;;;;;11.49;55.54;102943.19;5076038;27;45329;-54
2022/01/20 11:21:49;;;;;;;;;8.33;7.33;;;;;12.33;53.10;102919.94;5076020;27;46116;-52
2022/01/20 11:24:17;;;;;;;;;11.00;8.00;;;;;12.71;53.23;102936.81;5075815;28;45485;-53
2022/01/20 11:26:50;;;;;;;;;15.00;6.67;;;;;13.31;51.88;102935.25;5075290;28;45377;-51
2022/01/20 11:29:16;;;;;;;;;18.33;7.00;;;;;13.73;50.38;102931.25;5076467;27;45215;-50
2022/01/20 11:31:42;;;;;;;;;10.00;6.00;;;;;13.55;50.07;102905.91;5075824;27;45313;-52
2022/01/20 11:34:15;;;;;;;;;10.33;6.67;;;;;13.30;50.61;102920.19;5075606;27;45272;-52
2022/01/20 11:36:41;;;;;;;;;7.33;6.00;;;;;13.22;50.40;102923.41;5076187;27;45366;-57
2022/01/20 11:39:06;;;;;;;;;7.00;6.67;;;;;13.27;50.79;102915.06;5076049;27;45643;-54
2022/01/20 11:41:46;;;;;;;;;8.67;6.00;;;;;13.37;50.72;102916.13;5079247;27;46248;-54
2022/01/20 11:44:20;;;;;;;;;7.33;6.00;;;;;13.42;50.34;102918.47;5080255;27;45485;-55
2022/01/20 11:46:47;;;;;;;;;12.00;8.00;;;;;13.45;50.04;102919.09;5080306;27;45353;-54
2022/01/20 11:49:15;;;;;;;;;8.00;6.00;;;;;13.65;49.06;102914.06;5079262;27;45415;-53
2022/01/20 11:51:41;;;;;;;;;10.33;7.00;;;;;14.07;49.02;102915.34;5078991;27;47021;-50
2022/01/20 11:54:06;;;;;;;;;10.00;5.33;;;;;14.27;48.49;102918.34;5078902;27;45593;-50
2022/01/20 11:56:40;;;;;;;;;10.67;6.67;;;;;13.85;49.15;102932.19;5077632;27;45619;-51
2022/01/20 11:59:09;;;;;;;;;8.33;4.00;;;;;13.30;50.26;102924.69;5079310;27;45416;-56
2022/01/20 12:01:49;;;;;;;;;4.00;2.00;;;;;13.15;50.18;102921.28;5078953;28;46805;-49
2022/01/20 12:04:16;;;;;;;;;8.00;4.00;;;;;13.54;49.64;102914.03;5078024;27;45575;-51
2022/01/20 12:06:44;;;;;;;;;6.00;3.67;;;;;13.61;48.35;102923.28;5077559;27;45284;-53
2022/01/20 12:09:12;;;;;;;;;4.00;4.00;;;;;13.27;48.97;102930.25;5078666;27;45509;-50
2022/01/20 12:11:39;;;;;;;;;7.33;6.00;;;;;13.48;49.18;102926.03;5078603;28;46217;-50
2022/01/20 12:14:06;;;;;;;;;13.00;5.33;;;;;13.57;48.77;102937.84;5078670;28;45473;-54
2022/01/20 12:16:34;;;;;;;;;6.00;4.67;;;;;13.17;48.25;102932.72;5078360;27;45367;-55
2022/01/20 12:19:01;;;;;;;;;3.33;3.00;;;;;12.57;50.62;102936.94;5079016;27;45409;-50
2022/01/20 12:21:30;;;;;;;;;2.33;1.00;;;;;12.50;49.34;102940.97;5078541;28;46170;-54
2022/01/20 12:23:56;;;;;;;;;3.67;2.00;;;;;12.72;50.36;102933.22;5078578;27;45342;-50
2022/01/20 12:26:22;;;;;;;;;6.00;5.33;;;;;13.09;48.68;102930.59;5078595;28;45269;-53
2022/01/20 12:29:08;;;;;;;;;4.00;3.00;;;;;12.76;49.00;102935.66;5078839;28;45423;-54
2022/01/20 12:31:46;;;;;;;;;5.00;3.00;;;;;12.71;50.22;102936.81;5078542;27;46133;-51
2022/01/20 12:34:12;;;;;;;;;2.67;2.67;;;;;12.50;49.58;102927.63;5078379;28;45407;-54
2022/01/20 12:36:39;;;;;;;;;3.00;3.00;;;;;12.27;50.03;102925.69;5078382;28;45411;-52
2022/01/20 12:39:05;;;;;;;;;6.33;4.00;;;;;12.36;49.72;102923.25;5078528;28;45310;-50